Latest Coastal Weather Observations for Willis Island

IDQ60701

Issued at 1:15 pm EST Sunday 26 October 2014 (issued every 10 minutes, with the page automatically refreshed every 10 minutes)

About coastal observations | Map of coastal stations | Coastal observations for QLD | Marine services | Other Formats
Station Details ID: 200283 Name: WILLIS ISLAND Lat: -16.29 Lon: 149.97 Height: 9.29 m
Data from the previous 72 hours. | See also: Recent months at Willis Island
Date/Time
EST
Temp

°C
Wind Pressure Rain
since 9am
mm
Weather Cloud Vis
km
Sea
Height
m
Swell
Dir
 
Speed
knots
Gust
knots
hPa Trend Height
m
Period
s
Dir
26/01:00pm 28.4 SE 13 14 1014.3 - 0.0 - - - - - - -
26/12:30pm 27.9 SE 12 15 1014.6 - 0.0 - - - - - - -
26/12:00pm 27.9 SE 13 15 1015.0 S 0.0 Fine Mostly clear 30 1 1.2 7 SE
26/11:30am 28.0 SE 13 16 1015.3 - 0.0 - - - - - - -
26/11:00am 27.8 SE 13 17 1015.6 - 0.0 - - - - - - -
26/10:30am 27.6 SE 14 16 1015.8 - 0.0 - - - - - - -
26/10:00am 27.7 SE 13 15 1016.1 - 0.0 - - - - - - -
26/09:30am 27.2 SE 12 15 1016.2 - 0.0 - - - - - - -
26/09:00am 26.9 SE 14 17 1016.3 F 0.2 Fine Mostly clear 30 1 1.2 7 SE
26/08:30am 26.5 SE 13 16 1016.3 - 0.2 - - - - - - -
26/08:00am 26.0 SE 13 16 1016.2 - 0.2 - - - - - - -
26/07:30am 25.8 SE 14 16 1016.1 - 0.2 - - - - - - -
26/07:00am 25.4 ESE 13 15 1015.7 - 0.2 - - - - - - -
26/06:30am 24.8 ESE 15 18 1015.2 - 0.2 - - - - - - -
26/06:00am 24.3 SE 14 18 1015.0 F 0.2 Fine Partly cloudy 30 1 1.2 7 SE
26/05:30am 23.8 ESE 16 19 1014.6 - 0.2 - - - - - - -
26/05:00am 23.8 SE 16 19 1014.4 - 0.2 - - - - - - -
26/04:30am 23.9 SE 17 20 1014.3 - 0.2 - - - - - - -
26/04:00am 23.9 SE 17 20 1014.2 - 0.2 - - - - - - -
26/03:30am 23.7 SE 17 20 1014.2 - 0.2 - - - - - - -
26/03:00am 24.0 SE 15 18 1014.2 - 0.2 - - - - - - -
26/02:30am 24.0 SE 15 18 1014.4 - 0.2 - - - - - - -
26/02:00am 24.0 ESE 13 16 1014.6 - 0.2 - - - - - - -
26/01:30am 24.2 ESE 16 19 1015.0 - 0.2 - - - - - - -
26/01:00am 24.5 ESE 17 19 1015.4 - 0.2 - - - - - - -
26/12:30am 24.4 ESE 16 19 1015.9 - 0.2 - - - - - - -
26/12:00am 24.4 ESE 18 20 1016.2 - 0.2 - - - - - - -
 
Date/Time
EST
Temp

°C
Wind Pressure Rain
since 9am
mm
Weather Cloud Vis
km
Sea
Height
m
Swell
Dir
 
Speed
knots
Gust
knots
hPa Trend Height
m
Period
s
Dir
25/11:30pm 24.5 ESE 17 21 1016.5 - 0.2 - - - - - - -
25/11:00pm 24.7 ESE 17 21 1016.9 - 0.2 - - - - - - -
25/10:30pm 24.4 SE 16 19 1017.1 - 0.2 - - - - - - -
25/10:00pm 24.7 SE 17 21 1017.2 - 0.2 - - - - - - -
25/09:30pm 24.6 SE 17 20 1017.2 - 0.2 - - - - - - -
25/09:00pm 24.5 SE 16 20 1017.1 R 0.2 Fine Mostly cloudy 30 2 - - -
25/08:30pm 24.4 ESE 17 21 1016.9 - 0.2 - - - - - - -
25/08:00pm 24.4 SE 17 21 1016.7 - 0.2 - - - - - - -
25/07:30pm 24.2 SE 16 22 1016.6 - 0.2 - - - - - - -
25/07:00pm 24.2 SE 19 23 1016.2 - 0.2 - - - - - - -
25/06:30pm 24.2 SE 19 23 1015.9 - 0.2 - - - - - - -
25/06:00pm 24.2 SE 18 22 1015.4 R 0.2 Fine Partly cloudy 30 1 1.5 5 SE
25/05:30pm 24.5 SE 18 22 1015.2 - 0.2 - - - - - - -
25/05:00pm 24.9 SE 19 22 1014.7 - 0.2 - - - - - - -
25/04:30pm 25.4 SE 18 22 1014.3 - 0.2 - - - - - - -
25/04:00pm 25.6 SE 19 22 1014.2 - 0.2 - - - - - - -
25/03:30pm 25.9 SE 18 21 1014.3 - 0.2 - - - - - - -
25/03:00pm 26.2 SE 19 22 1014.5 S 0.2 Fine Mostly clear 40 2 2.0 5 SE
25/02:30pm 26.7 SE 19 22 1014.7 - 0.2 - - - - - - -
25/02:00pm 26.9 SE 19 22 1014.8 - 0.2 - - - - - - -
25/01:30pm 27.2 ESE 18 22 1015.1 - 0.2 - - - - - - -
25/01:00pm 27.2 ESE 16 19 1015.4 - 0.2 - - - - - - -
25/12:30pm 27.4 SE 17 20 1015.8 - 0.2 - - - - - - -
25/12:00pm 27.2 SE 17 20 1016.2 F 0.2 Fine Mostly clear 30 2 1.7 8 SE
25/11:30am 26.8 ESE 19 22 1016.5 - 0.2 - - - - - - -
25/11:00am 26.9 ESE 19 22 1016.8 - 0.2 - - - - - - -
25/10:30am 26.9 ESE 21 26 1017.1 - 0.2 - - - - - - -
25/10:00am 26.3 ESE 22 25 1017.3 - 0.2 - - - - - - -
25/09:30am 26.7 ESE 18 21 1017.6 - 0.2 - - - - - - -
25/09:00am 26.4 ESE 19 22 1017.8 F 0.0 Fine Mostly clear 30 2 1.7 8 SE
25/08:30am 25.9 ESE 21 25 1017.6 - 0.0 - - - - - - -
25/08:00am 25.7 ESE 21 25 1017.6 - 0.0 - - - - - - -
25/07:30am 25.4 ESE 23 27 1017.4 - 0.0 - - - - - - -
25/07:00am 24.9 ESE 23 27 1016.9 - 0.0 - - - - - - -
25/06:46am 24.2 ESE 22 25 1016.8 - 0.0 - - - - - - -
25/06:30am 23.3 E 16 23 1016.7 - 0.0 - - - - - - -
25/06:22am 22.9 E 19 23 1016.6 - 0.0 - - - - - - -
25/06:00am 23.5 ESE 21 25 1016.4 R 0.0 Distant precip. Mostly cloudy 30 2 1.7 8 SE
25/05:30am 24.1 ESE 18 22 1016.0 - 0.0 - - - - - - -
25/05:00am 23.6 SE 16 19 1015.7 - 0.0 - - - - - - -
25/04:30am 23.0 SE 16 19 1015.7 - 0.0 - - - - - - -
25/04:04am 23.8 ESE 21 31 1015.4 - 0.0 - - - - - - -
25/04:00am 24.2 SE 20 23 1015.3 - 0.0 - - - - - - -
25/03:30am 24.1 SE 19 22 1015.2 - 0.0 - - - - - - -
25/03:00am 24.1 SE 19 22 1015.1 - 0.0 - - - - - - -
25/02:30am 24.2 SE 19 22 1015.1 - 0.0 - - - - - - -
25/02:00am 24.2 SE 16 21 1015.3 - 0.0 - - - - - - -
25/01:30am 24.3 SE 21 25 1015.7 - 0.0 - - - - - - -
25/01:00am 24.3 ESE 19 24 1016.0 - 0.0 - - - - - - -
25/12:30am 24.2 SE 22 25 1016.3 - 0.0 - - - - - - -
25/12:00am 24.4 SE 21 25 1016.6 - 0.0 - - - - - - -
 
Date/Time
EST
Temp

°C
Wind Pressure Rain
since 9am
mm
Weather Cloud Vis
km
Sea
Height
m
Swell
Dir
 
Speed
knots
Gust
knots
hPa Trend Height
m
Period
s
Dir
24/11:30pm 24.3 SE 23 27 1017.1 - 0.0 - - - - - - -
24/11:00pm 24.4 SE 22 26 1017.5 - 0.0 - - - - - - -
24/10:30pm 24.6 SE 23 26 1017.6 - 0.0 - - - - - - -
24/10:00pm 24.6 SE 23 27 1017.8 - 0.0 - - - - - - -
24/09:30pm 24.8 SE 23 27 1017.7 - 0.0 - - - - - - -
24/09:00pm 24.6 ESE 23 27 1017.6 R 0.0 Distant precip. Partly cloudy 25 2 - - -
24/08:30pm 24.5 ESE 23 28 1017.3 - 0.0 - - - - - - -
24/08:00pm 24.5 ESE 21 25 1016.9 - 0.0 - - - - - - -
24/07:30pm 24.7 SE 22 26 1016.6 - 0.0 - - - - - - -
24/07:00pm 24.7 SE 21 23 1016.4 - 0.0 - - - - - - -
24/06:30pm 24.6 ESE 20 24 1016.1 - 0.0 - - - - - - -
24/06:00pm 24.7 ESE 20 24 1015.9 R 0.0 Distant precip. Partly cloudy 30 2 1.5 9 SE
24/05:30pm 24.9 ESE 19 21 1015.6 - 0.0 - - - - - - -
24/05:00pm 25.1 SE 19 22 1015.2 - 0.0 - - - - - - -
24/04:30pm 25.3 SE 18 21 1015.0 - 0.0 - - - - - - -
24/04:00pm 25.9 ESE 19 22 1014.7 - 0.0 - - - - - - -
24/03:30pm 25.9 SE 18 21 1014.6 - 0.0 - - - - - - -
24/03:00pm 26.9 ESE 18 21 1014.7 R 0.0 Fine Mostly clear 30 2 1.5 5 SE
24/02:30pm 26.7 ESE 18 21 1014.9 - 0.0 - - - - - - -
24/02:00pm 27.1 ESE 18 22 1015.0 - 0.0 - - - - - - -
24/01:30pm 27.4 SE 18 21 1015.3 - 0.0 - - - - - - -
24/01:00pm 26.5 ESE 19 21 1015.6 - 0.0 - - - - - - -
24/12:30pm 26.9 ESE 19 21 1015.9 - 0.0 - - - - - - -
24/12:00pm 26.8 ESE 18 21 1016.2 F 0.0 Distant precip. Mostly cloudy 30 2 1.5 5 SE
24/11:30am 26.6 ESE 16 20 1016.7 - 0.0 - - - - - - -
24/11:00am 27.2 ESE 17 20 1017.1 - 0.0 - - - - - - -
24/10:30am 26.2 SE 17 20 1017.4 - 0.0 - - - - - - -
24/10:00am 26.6 ESE 16 19 1017.5 - 0.0 - - - - - - -
24/09:30am 25.7 ESE 17 19 1017.7 - 0.0 - - - - - - -
24/09:00am 26.0 ESE 17 20 1017.7 R 2.0 Distant precip. Partly cloudy 30 1 2.0 7 SE
24/08:30am 25.8 ESE 20 22 1017.7 - 2.0 - - - - - - -
24/08:00am 25.7 ESE 19 21 1017.6 - 2.0 - - - - - - -
24/07:30am 25.1 ESE 20 23 1017.2 - 2.0 - - - - - - -
24/07:00am 24.7 ESE 19 22 1017.0 - 2.0 - - - - - - -
24/06:30am 24.3 ESE 20 24 1016.6 - 2.0 - - - - - - -
24/06:00am 24.1 ESE 19 23 1016.1 F 2.0 Recent precip. Mostly cloudy 30 1 2.0 7 SE
24/05:30am 23.6 ESE 18 21 1015.9 - 2.0 - - - - - - -
24/05:00am 23.5 ESE 16 20 1015.6 - 2.0 - - - - - - -
24/04:30am 21.9 ESE 19 23 1015.2 - 2.0 - - - - - - -
24/04:25am 22.2 SE 15 27 1015.3 - 1.2 - - - - - - -
24/04:00am 22.8 SE 15 19 1015.3 - 0.6 - - - - - - -
24/03:46am 22.2 SSE 15 20 1015.2 - 0.6 - - - - - - -
24/03:30am 21.9 ESE 25 28 1015.2 - 0.4 - - - - - - -
24/03:25am 23.6 SE 15 25 1015.2 - 0.0 - - - - - - -
24/03:00am 23.8 SE 15 18 1015.2 - 0.0 - - - - - - -
24/02:30am 23.8 SE 15 18 1015.2 - 0.0 - - - - - - -
24/02:00am 23.8 SSE 19 23 1015.4 - 0.0 - - - - - - -
24/01:30am 24.0 SSE 19 23 1015.7 - 0.0 - - - - - - -
24/01:00am 24.0 SE 20 22 1016.2 - 0.0 - - - - - - -
24/12:30am 23.8 ESE 18 21 1016.4 - 0.0 - - - - - - -
24/12:00am 23.5 SE 20 27 1016.9 - 0.0 - - - - - - -
 
Date/Time
EST
Temp

°C
Wind Pressure Rain
since 9am
mm
Weather Cloud Vis
km
Sea
Height
m
Swell
Dir
 
Speed
knots
Gust
knots
hPa Trend Height
m
Period
s
Dir
23/11:30pm 24.2 SE 19 22 1017.0 - 0.0 - - - - - - -
23/11:00pm 24.2 SE 19 21 1017.3 - 0.0 - - - - - - -
23/10:30pm 24.3 ESE 20 23 1017.4 - 0.0 - - - - - - -
23/10:00pm 24.5 ESE 21 24 1017.7 - 0.0 - - - - - - -
23/09:30pm 24.3 ESE 20 23 1017.6 - 0.0 - - - - - - -
23/09:00pm 24.3 ESE 21 25 1017.3 R 0.0 Fine Mostly clear 30 2 1.7 9 SE
23/08:30pm 24.4 ESE 21 25 1017.0 - 0.0 - - - - - - -
23/08:00pm 24.3 SE 21 25 1016.5 - 0.0 - - - - - - -
23/07:30pm 24.4 SE 20 24 1016.3 - 0.0 - - - - - - -
23/07:00pm 24.3 SE 20 24 1016.1 - 0.0 - - - - - - -
23/06:30pm 24.3 SE 20 24 1015.9 - 0.0 - - - - - - -
23/06:00pm 24.3 SE 21 24 1015.6 R 0.0 Fine Mostly clear 30 2 1.7 9 SE
23/05:30pm 24.8 SE 21 24 1015.2 - 0.0 - - - - - - -
23/05:00pm 24.7 SE 21 24 1014.9 - 0.0 - - - - - - -
23/04:30pm 25.4 SE 20 24 1014.4 - 0.0 - - - - - - -
23/04:00pm 25.5 SE 20 23 1014.1 - 0.0 - - - - - - -
23/03:30pm 25.9 SE 20 23 1014.0 - 0.0 - - - - - - -
23/03:00pm 26.4 SE 20 23 1014.1 R 0.0 Fine Partly cloudy 30 1 1.5 8 SE
23/02:30pm 26.7 SE 19 22 1014.2 - 0.0 - - - - - - -
23/02:00pm 26.4 SE 19 23 1014.3 - 0.0 - - - - - - -
23/01:30pm 26.5 SE 19 23 1014.6 - 0.0 - - - - - - -

Other Formats:

Comma delimited format used in spreadsheet applications
http://www.bom.gov.au/fwo/IDQ60701/IDQ60701.94299.axf

JavaScript Object Notation format (JSON) in row-major order
http://www.bom.gov.au/fwo/IDQ60701/IDQ60701.94299.json